Time;durP1;ratioP1;P1;durP2;ratioP2;P2;SDS_P1;SDS_P2;PMS_P1;PMS_P2;Temp;Humidity;BMP_temperature;BMP_pressure;BME280_temperature;BME280_humidity;BME280_pressure;Samples;Min_cycle;Max_cycle;Signal;HPM_P1;HPM_P2
2021/12/19 00:00:11;;;;;;;;;;;2.80;98.40;;;;;;4987075;28;20216;-74
2021/12/19 00:10:49;;;;;;;;;;;2.90;98.40;;;;;;4987493;28;19940;-75
2021/12/19 00:13:15;;;;;;;;;;;2.90;98.40;;;;;;4986071;28;19906;-76
2021/12/19 00:15:41;;;;;;;;;;;2.90;98.40;;;;;;4968594;28;19917;-76
2021/12/19 00:18:06;;;;;;;;;;;2.90;98.50;;;;;;4984824;28;19910;-75
2021/12/19 00:20:32;;;;;;;;;;;3.00;98.20;;;;;;4968733;28;19913;-75
2021/12/19 00:22:58;;;;;;;;;;;3.00;98.20;;;;;;4985201;28;19906;-75
2021/12/19 00:25:23;;;;;;;;;;;3.00;98.30;;;;;;4986284;28;20197;-74
2021/12/19 00:27:49;;;;;;;;;;;3.00;98.30;;;;;;4987121;28;19906;-74
2021/12/19 00:30:15;;;;;;;;;;;3.00;98.40;;;;;;4987253;28;20193;-75
2021/12/19 00:32:40;;;;;;;;;;;3.10;98.20;;;;;;4986371;28;19906;-75
2021/12/19 00:35:07;;;;;;;;;;;3.10;98.20;;;;;;5001104;28;20410;-76
2021/12/19 00:37:32;;;;;;;;;;;3.20;98.20;;;;;;4968494;28;20168;-75
2021/12/19 00:39:58;;;;;;;;;;;3.20;98.20;;;;;;5001352;28;19906;-75
2021/12/19 00:42:37;;;;;;;;;;;3.20;98.40;;;;;;5000993;28;19905;-75
2021/12/19 00:45:16;;;;;;;;;;;3.20;98.10;;;;;;4986053;28;20201;-75
2021/12/19 00:47:43;;;;;;;;;;;3.20;98.20;;;;;;4985280;28;20208;-75
2021/12/19 00:50:09;;;;;;;;;;;3.20;98.20;;;;;;4984972;28;19906;-75
2021/12/19 00:52:35;;;;;;;;;;;3.20;98.10;;;;;;4985174;28;19952;-75
2021/12/19 00:55:01;;;;;;;;;;;3.10;98.10;;;;;;4985800;28;19910;-75
2021/12/19 00:57:26;;;;;;;;;;;3.30;98.00;;;;;;4985793;28;19914;-75
2021/12/19 00:59:52;;;;;;;;;;;3.20;98.00;;;;;;4985915;28;19906;-75
2021/12/19 01:02:18;;;;;;;;;;;3.20;98.00;;;;;;4984641;28;19906;-75
2021/12/19 01:04:43;;;;;;;;;;;3.30;98.10;;;;;;4985358;28;19906;-75
2021/12/19 01:07:09;;;;;;;;;;;3.20;98.00;;;;;;4984309;28;20017;-74
2021/12/19 01:09:35;;;;;;;;;;;3.20;97.90;;;;;;4986020;28;19913;-74
2021/12/19 01:12:01;;;;;;;;;;;3.20;98.00;;;;;;4984448;28;19906;-75
2021/12/19 01:14:27;;;;;;;;;;;3.10;98.00;;;;;;4985612;28;19929;-75
2021/12/19 01:16:53;;;;;;;;;;;3.20;97.90;;;;;;4985995;28;19914;-76
2021/12/19 01:19:18;;;;;;;;;;;3.20;98.00;;;;;;4969497;28;19910;-74
2021/12/19 01:21:45;;;;;;;;;;;3.20;98.00;;;;;;4983711;28;19941;-76
2021/12/19 01:24:11;;;;;;;;;;;3.10;98.00;;;;;;4984255;28;20311;-76
2021/12/19 01:26:37;;;;;;;;;;;3.10;98.00;;;;;;4983918;28;19914;-77
2021/12/19 01:29:02;;;;;;;;;;;3.10;98.00;;;;;;4967242;28;19913;-77
2021/12/19 01:31:28;;;;;;;;;;;3.10;98.00;;;;;;4967322;28;19913;-75
2021/12/19 01:33:54;;;;;;;;;;;3.10;98.10;;;;;;4982600;28;19906;-76
2021/12/19 01:36:20;;;;;;;;;;;3.00;98.00;;;;;;4982736;28;19910;-76
2021/12/19 01:38:45;;;;;;;;;;;3.00;98.50;;;;;;4967028;28;19906;-77
2021/12/19 01:41:11;;;;;;;;;;;2.90;98.30;;;;;;4982845;28;19921;-76
2021/12/19 01:43:37;;;;;;;;;;;3.00;98.40;;;;;;4983158;28;19906;-75
2021/12/19 01:46:02;;;;;;;;;;;3.00;98.50;;;;;;4966778;28;19906;-76
2021/12/19 01:48:28;;;;;;;;;;;3.00;98.60;;;;;;4983003;28;19906;-76
2021/12/19 01:50:54;;;;;;;;;;;3.10;98.60;;;;;;4983053;28;19913;-76
2021/12/19 01:53:20;;;;;;;;;;;3.20;98.50;;;;;;4966891;28;19953;-76
2021/12/19 01:55:46;;;;;;;;;;;3.20;98.40;;;;;;4966546;28;19985;-75
2021/12/19 01:58:12;;;;;;;;;;;3.20;98.30;;;;;;4985227;28;19906;-77
2021/12/19 02:00:44;;;;;;;;;;;3.20;98.30;;;;;;4967239;28;19929;-77
2021/12/19 02:03:10;;;;;;;;;;;3.20;98.40;;;;;;4951414;28;19972;-76
2021/12/19 02:05:36;;;;;;;;;;;3.20;98.40;;;;;;4985912;28;19910;-77
2021/12/19 02:08:03;;;;;;;;;;;3.20;98.50;;;;;;4987265;28;19910;-77
2021/12/19 02:10:30;;;;;;;;;;;3.20;98.60;;;;;;4988235;28;19906;-76
2021/12/19 02:12:56;;;;;;;;;;;3.20;98.60;;;;;;4970582;28;19909;-75
2021/12/19 02:15:23;;;;;;;;;;;3.20;98.20;;;;;;4971709;28;19913;-77
2021/12/19 02:17:51;;;;;;;;;;;3.20;98.30;;;;;;4991189;28;19906;-77
2021/12/19 02:20:17;;;;;;;;;;;3.20;98.30;;;;;;4992304;28;19913;-77
2021/12/19 02:22:42;;;;;;;;;;;3.20;98.30;;;;;;4992096;28;19914;-77
2021/12/19 02:25:09;;;;;;;;;;;3.20;98.40;;;;;;4991744;28;19937;-77
2021/12/19 02:27:34;;;;;;;;;;;3.20;98.60;;;;;;4991776;28;19906;-77
2021/12/19 02:30:00;;;;;;;;;;;3.30;98.60;;;;;;4990345;28;19905;-77
2021/12/19 02:32:28;;;;;;;;;;;3.20;98.70;;;;;;4989023;28;19906;-77
2021/12/19 02:34:57;;;;;;;;;;;3.30;98.40;;;;;;4988584;28;19906;-77
2021/12/19 02:40:24;;;;;;;;;;;3.30;98.30;;;;;;4989240;28;19905;-77
2021/12/19 02:48:18;;;;;;;;;;;3.20;98.60;;;;;;4993001;28;19961;-76
2021/12/19 02:50:51;;;;;;;;;;;3.30;98.50;;;;;;4994529;28;19910;-74
2021/12/19 02:53:27;;;;;;;;;;;3.40;98.50;;;;;;4993177;28;19913;-75
2021/12/19 02:55:53;;;;;;;;;;;3.30;98.60;;;;;;4995551;28;19914;-76
2021/12/19 02:58:19;;;;;;;;;;;3.30;98.60;;;;;;4992694;28;19913;-74
2021/12/19 03:00:45;;;;;;;;;;;3.30;98.60;;;;;;4992406;28;20234;-75
2021/12/19 03:03:11;;;;;;;;;;;3.30;98.70;;;;;;4992087;28;19916;-77
2021/12/19 03:05:37;;;;;;;;;;;3.40;98.70;;;;;;4993159;28;19910;-77
2021/12/19 03:08:03;;;;;;;;;;;3.40;98.70;;;;;;4994177;28;19918;-77
2021/12/19 03:18:24;;;;;;;;;;;3.30;98.50;;;;;;4991434;28;19978;-73
2021/12/19 03:20:50;;;;;;;;;;;3.30;98.40;;;;;;5005024;28;19909;-74
2021/12/19 03:23:16;;;;;;;;;;;3.30;98.50;;;;;;4973088;28;19910;-73
2021/12/19 03:25:42;;;;;;;;;;;3.20;98.40;;;;;;4989700;28;19917;-74
2021/12/19 03:28:08;;;;;;;;;;;3.20;98.70;;;;;;4992664;28;20205;-74
2021/12/19 03:30:35;;;;;;;;;;;3.20;98.70;;;;;;4991133;28;19982;-75
2021/12/19 03:33:01;;;;;;;;;;;3.20;98.60;;;;;;4989368;28;19906;-75
2021/12/19 03:35:29;;;;;;;;;;;3.20;98.80;;;;;;4990021;28;20185;-74
2021/12/19 03:37:55;;;;;;;;;;;3.20;98.80;;;;;;4991854;28;19970;-75
2021/12/19 03:40:37;;;;;;;;;;;3.20;98.80;;;;;;4990607;28;19966;-75
2021/12/19 03:43:10;;;;;;;;;;;3.20;98.90;;;;;;4990719;28;20131;-75
2021/12/19 03:45:36;;;;;;;;;;;3.10;99.00;;;;;;4992861;28;19913;-75
2021/12/19 03:48:04;;;;;;;;;;;3.10;99.00;;;;;;4993514;28;19974;-75
2021/12/19 03:50:32;;;;;;;;;;;3.10;99.00;;;;;;4993096;28;19906;-76
2021/12/19 03:52:59;;;;;;;;;;;3.20;99.20;;;;;;4993369;28;19906;-75
2021/12/19 03:55:26;;;;;;;;;;;3.20;99.20;;;;;;4990485;28;19984;-75
2021/12/19 03:57:51;;;;;;;;;;;3.20;99.30;;;;;;4990421;28;19941;-74
2021/12/19 04:00:22;;;;;;;;;;;3.20;99.10;;;;;;4993696;28;19906;-74
2021/12/19 04:02:48;;;;;;;;;;;3.10;99.20;;;;;;4976768;28;19970;-75
2021/12/19 04:05:14;;;;;;;;;;;3.10;99.10;;;;;;4992432;28;19905;-75
2021/12/19 04:07:40;;;;;;;;;;;3.20;99.20;;;;;;4990348;28;19944;-74
2021/12/19 04:10:06;;;;;;;;;;;3.20;99.20;;;;;;4990912;28;19906;-74
2021/12/19 04:12:32;;;;;;;;;;;3.20;99.20;;;;;;4993032;28;19930;-74
2021/12/19 04:14:57;;;;;;;;;;;3.20;99.30;;;;;;4993929;28;19938;-75
2021/12/19 04:17:23;;;;;;;;;;;3.10;99.20;;;;;;4991451;28;19917;-74
2021/12/19 04:19:49;;;;;;;;;;;3.10;99.30;;;;;;4990737;28;19910;-75
2021/12/19 04:22:15;;;;;;;;;;;3.10;99.40;;;;;;4991245;28;19906;-75
2021/12/19 04:24:40;;;;;;;;;;;3.10;99.50;;;;;;4989999;28;19929;-74
2021/12/19 04:27:06;;;;;;;;;;;3.10;99.60;;;;;;4989374;28;19928;-74
2021/12/19 04:29:32;;;;;;;;;;;3.10;99.60;;;;;;4990365;28;19973;-75
2021/12/19 04:31:57;;;;;;;;;;;3.10;99.60;;;;;;4989497;28;19906;-75
2021/12/19 04:34:23;;;;;;;;;;;3.10;99.60;;;;;;4989504;28;19906;-75
2021/12/19 04:36:55;;;;;;;;;;;3.10;99.50;;;;;;4990083;28;19910;-74
2021/12/19 04:40:24;;;;;;;;;;;3.10;99.50;;;;;;4991015;28;20153;-75
2021/12/19 04:53:22;;;;;;;;;;;3.10;99.70;;;;;;4993737;28;19912;-76
2021/12/19 04:56:17;;;;;;;;;;;3.10;99.50;;;;;;4993371;28;19914;-75
2021/12/19 05:06:19;;;;;;;;;;;3.20;99.50;;;;;;4983537;28;20328;-68
2021/12/19 05:14:18;;;;;;;;;;;3.20;99.40;;;;;;4983560;28;20125;-68
2021/12/19 05:16:46;;;;;;;;;;;3.20;99.40;;;;;;4983450;28;19973;-68
2021/12/19 05:19:24;;;;;;;;;;;3.20;99.50;;;;;;4982487;28;20169;-68
2021/12/19 05:21:53;;;;;;;;;;;3.20;99.60;;;;;;4983616;28;19906;-68
2021/12/19 05:26:45;;;;;;;;;;;3.20;99.50;;;;;;4983313;28;19906;-68
2021/12/19 05:29:12;;;;;;;;;;;3.20;99.50;;;;;;4983467;28;19917;-68
2021/12/19 05:31:38;;;;;;;;;;;3.20;99.50;;;;;;4983584;28;19906;-69
2021/12/19 05:34:04;;;;;;;;;;;3.20;99.50;;;;;;4983250;28;20088;-69
2021/12/19 05:47:07;;;;;;;;;;;3.30;99.50;;;;;;4983133;28;19912;-69
2021/12/19 05:49:34;;;;;;;;;;;3.30;99.30;;;;;;4983307;28;20216;-68
2021/12/19 05:52:00;;;;;;;;;;;3.40;99.30;;;;;;4983234;28;19960;-69
2021/12/19 05:54:26;;;;;;;;;;;3.30;99.30;;;;;;4982957;28;19906;-69
2021/12/19 05:56:52;;;;;;;;;;;3.30;99.30;;;;;;4982610;28;19997;-69
2021/12/19 05:59:18;;;;;;;;;;;3.30;99.30;;;;;;4983108;28;19925;-69
2021/12/19 06:01:45;;;;;;;;;;;3.30;99.20;;;;;;4983501;28;19913;-68
2021/12/19 06:04:11;;;;;;;;;;;3.30;99.50;;;;;;4983149;28;19906;-68
2021/12/19 06:06:37;;;;;;;;;;;3.30;99.20;;;;;;4982713;28;20225;-68
2021/12/19 06:09:03;;;;;;;;;;;3.30;99.20;;;;;;4981642;28;19912;-68
2021/12/19 06:11:28;;;;;;;;;;;3.30;99.20;;;;;;4982794;28;20156;-68
2021/12/19 06:13:54;;;;;;;;;;;3.40;99.30;;;;;;4982542;28;19906;-67
2021/12/19 06:16:20;;;;;;;;;;;3.30;99.30;;;;;;4982367;28;19910;-67
2021/12/19 06:18:47;;;;;;;;;;;3.30;99.30;;;;;;4982659;28;19925;-67
2021/12/19 06:21:12;;;;;;;;;;;3.30;99.30;;;;;;4985633;28;19906;-67
2021/12/19 06:23:39;;;;;;;;;;;3.40;99.40;;;;;;5001766;28;19928;-68
2021/12/19 06:26:04;;;;;;;;;;;3.40;99.30;;;;;;4986227;28;19906;-68
2021/12/19 06:28:30;;;;;;;;;;;3.50;99.10;;;;;;4986173;28;19928;-67
2021/12/19 06:30:56;;;;;;;;;;;3.40;99.10;;;;;;4986535;28;19910;-67
2021/12/19 06:33:22;;;;;;;;;;;3.40;99.00;;;;;;4986546;28;20145;-67
2021/12/19 06:35:47;;;;;;;;;;;3.40;99.10;;;;;;4985873;28;19914;-67
2021/12/19 06:38:15;;;;;;;;;;;3.40;99.00;;;;;;4986071;28;19909;-67
2021/12/19 06:40:41;;;;;;;;;;;3.40;99.00;;;;;;4986016;28;20224;-68
2021/12/19 06:43:07;;;;;;;;;;;3.40;98.90;;;;;;4985885;28;19914;-68
2021/12/19 06:45:33;;;;;;;;;;;3.40;98.80;;;;;;4985842;28;19913;-68
2021/12/19 06:47:58;;;;;;;;;;;3.50;99.00;;;;;;4985905;28;19906;-68
2021/12/19 06:50:24;;;;;;;;;;;3.40;98.80;;;;;;4986077;28;19945;-68
2021/12/19 06:52:50;;;;;;;;;;;3.40;98.70;;;;;;4984918;28;20256;-67
2021/12/19 06:55:16;;;;;;;;;;;3.40;98.80;;;;;;4985831;28;20001;-67
2021/12/19 06:57:41;;;;;;;;;;;3.40;98.80;;;;;;4984232;28;19928;-67
2021/12/19 07:00:12;;;;;;;;;;;3.40;98.80;;;;;;4985683;28;19916;-67
2021/12/19 07:02:38;;;;;;;;;;;3.40;98.80;;;;;;4985954;28;20117;-68
2021/12/19 07:05:04;;;;;;;;;;;3.40;98.80;;;;;;4985597;28;20148;-67
2021/12/19 07:07:30;;;;;;;;;;;3.40;98.80;;;;;;4985767;28;19913;-67
2021/12/19 07:09:56;;;;;;;;;;;3.50;98.70;;;;;;4985555;28;19905;-68
2021/12/19 07:12:26;;;;;;;;;;;3.40;98.40;;;;;;4985540;28;19929;-68
2021/12/19 07:14:52;;;;;;;;;;;3.50;98.50;;;;;;4985589;28;19977;-67
2021/12/19 07:17:18;;;;;;;;;;;3.50;98.40;;;;;;4985153;28;19920;-68
2021/12/19 07:19:43;;;;;;;;;;;3.40;98.30;;;;;;4985481;28;19945;-68
2021/12/19 07:22:09;;;;;;;;;;;3.40;98.40;;;;;;4984409;28;19976;-67
2021/12/19 07:24:35;;;;;;;;;;;3.40;98.10;;;;;;4983611;28;19914;-67
2021/12/19 07:27:01;;;;;;;;;;;3.50;98.10;;;;;;4983692;28;20380;-67
2021/12/19 07:29:26;;;;;;;;;;;3.40;98.20;;;;;;4984448;28;19910;-68
2021/12/19 07:31:52;;;;;;;;;;;3.40;98.20;;;;;;4984370;28;19906;-68
2021/12/19 07:34:18;;;;;;;;;;;3.50;98.30;;;;;;4988196;28;19910;-68
2021/12/19 07:36:50;;;;;;;;;;;3.50;98.20;;;;;;4984905;28;20176;-68
2021/12/19 07:39:38;;;;;;;;;;;3.50;98.20;;;;;;4985026;28;19921;-67
2021/12/19 07:42:13;;;;;;;;;;;3.50;97.90;;;;;;4984639;28;19914;-67
2021/12/19 07:44:39;;;;;;;;;;;3.50;98.00;;;;;;4984915;28;20221;-67
2021/12/19 07:47:07;;;;;;;;;;;3.50;98.00;;;;;;4984807;28;19918;-67
2021/12/19 07:49:33;;;;;;;;;;;3.50;97.90;;;;;;4984682;28;19906;-67
2021/12/19 07:51:59;;;;;;;;;;;3.50;97.80;;;;;;5000017;28;19905;-68
2021/12/19 07:54:24;;;;;;;;;;;3.60;97.60;;;;;;4984502;28;19991;-69
2021/12/19 07:56:51;;;;;;;;;;;3.60;97.70;;;;;;4984499;28;19925;-68
2021/12/19 07:59:17;;;;;;;;;;;3.60;97.80;;;;;;4984635;28;19913;-68
2021/12/19 08:01:43;;;;;;;;;;;3.60;97.60;;;;;;4984886;28;19905;-68
2021/12/19 08:04:09;;;;;;;;;;;3.60;97.70;;;;;;4983841;28;20105;-68
2021/12/19 08:06:35;;;;;;;;;;;3.70;97.80;;;;;;4984387;28;19913;-68
2021/12/19 08:09:08;;;;;;;;;;;3.60;97.70;;;;;;4984557;28;19940;-69
2021/12/19 08:11:39;;;;;;;;;;;3.60;97.90;;;;;;4984283;28;19954;-68
2021/12/19 08:14:06;;;;;;;;;;;3.70;97.80;;;;;;4984534;28;19970;-70
2021/12/19 08:16:32;;;;;;;;;;;3.70;97.80;;;;;;4999217;28;20043;-69
2021/12/19 08:18:57;;;;;;;;;;;3.70;97.80;;;;;;4984536;28;19910;-69
2021/12/19 08:21:23;;;;;;;;;;;3.70;98.30;;;;;;4984712;28;20058;-70
2021/12/19 08:23:49;;;;;;;;;;;3.70;97.90;;;;;;4984536;28;19906;-70
2021/12/19 08:26:15;;;;;;;;;;;3.80;97.50;;;;;;4984304;28;19981;-70
2021/12/19 08:28:41;;;;;;;;;;;3.80;97.40;;;;;;4984095;28;19916;-70
2021/12/19 08:31:07;;;;;;;;;;;3.80;97.60;;;;;;4984355;28;19948;-70
2021/12/19 08:33:32;;;;;;;;;;;3.80;97.80;;;;;;4983345;28;19906;-70
2021/12/19 08:35:59;;;;;;;;;;;3.80;97.80;;;;;;4984144;28;19910;-70
2021/12/19 08:38:25;;;;;;;;;;;3.80;97.60;;;;;;4984813;28;19906;-70
2021/12/19 08:40:51;;;;;;;;;;;3.80;97.80;;;;;;4983093;28;19913;-71
2021/12/19 08:43:17;;;;;;;;;;;3.80;97.70;;;;;;4982722;28;19906;-71
2021/12/19 08:45:43;;;;;;;;;;;3.90;97.70;;;;;;4983747;28;19906;-69
2021/12/19 08:48:09;;;;;;;;;;;3.90;97.50;;;;;;4984168;28;19906;-68
2021/12/19 08:50:35;;;;;;;;;;;3.90;97.50;;;;;;4984124;28;19929;-68
2021/12/19 08:53:00;;;;;;;;;;;3.90;97.60;;;;;;4984075;28;19952;-68
2021/12/19 08:55:26;;;;;;;;;;;3.90;97.70;;;;;;4983761;28;19940;-68
2021/12/19 08:57:52;;;;;;;;;;;3.90;97.50;;;;;;4983653;28;19957;-68
2021/12/19 09:00:18;;;;;;;;;;;4.00;97.40;;;;;;4983711;28;19906;-68
2021/12/19 09:02:46;;;;;;;;;;;3.90;97.50;;;;;;4984208;28;20219;-68
2021/12/19 09:05:12;;;;;;;;;;;3.90;97.30;;;;;;4983684;28;19906;-67
2021/12/19 09:07:38;;;;;;;;;;;3.90;97.40;;;;;;4983534;28;19910;-68
2021/12/19 09:10:04;;;;;;;;;;;4.00;97.40;;;;;;4983472;28;20261;-67
2021/12/19 09:12:30;;;;;;;;;;;4.00;97.40;;;;;;4983306;28;19988;-67
2021/12/19 09:14:56;;;;;;;;;;;3.90;97.40;;;;;;4983323;28;19933;-67
2021/12/19 09:17:21;;;;;;;;;;;4.00;97.50;;;;;;4983534;28;20157;-67
2021/12/19 09:19:47;;;;;;;;;;;4.00;97.40;;;;;;4983369;28;19910;-67
2021/12/19 09:22:13;;;;;;;;;;;4.10;97.10;;;;;;4983516;28;19910;-67
2021/12/19 09:24:39;;;;;;;;;;;4.00;97.10;;;;;;4983218;28;19981;-66
2021/12/19 09:27:07;;;;;;;;;;;4.00;97.30;;;;;;4983189;28;19909;-67
2021/12/19 09:29:33;;;;;;;;;;;4.00;97.50;;;;;;4982952;28;19913;-68
2021/12/19 09:31:59;;;;;;;;;;;4.00;97.10;;;;;;4983081;28;19906;-67
2021/12/19 09:34:26;;;;;;;;;;;4.00;97.30;;;;;;4996522;28;19913;-67
2021/12/19 09:36:52;;;;;;;;;;;4.00;97.50;;;;;;4983376;28;20082;-67
2021/12/19 09:39:18;;;;;;;;;;;4.00;97.40;;;;;;4983383;28;19929;-68
2021/12/19 09:41:45;;;;;;;;;;;4.10;97.50;;;;;;4983006;28;19938;-67
2021/12/19 09:44:15;;;;;;;;;;;4.10;97.50;;;;;;4981547;28;19952;-67
2021/12/19 09:46:42;;;;;;;;;;;4.20;97.40;;;;;;4983420;28;19972;-68
2021/12/19 09:49:10;;;;;;;;;;;4.20;97.10;;;;;;4983234;28;20257;-68
2021/12/19 09:51:36;;;;;;;;;;;4.30;96.70;;;;;;4981834;28;19941;-68
2021/12/19 09:54:03;;;;;;;;;;;4.20;96.30;;;;;;4996673;28;19914;-69
2021/12/19 09:56:33;;;;;;;;;;;4.10;96.40;;;;;;4982178;28;19945;-70
2021/12/19 09:58:59;;;;;;;;;;;4.10;96.60;;;;;;4983258;28;19929;-69
2021/12/19 10:01:25;;;;;;;;;;;4.10;96.70;;;;;;4981812;28;19955;-69
2021/12/19 10:03:51;;;;;;;;;;;4.10;96.80;;;;;;4982326;28;20135;-68
2021/12/19 10:06:24;;;;;;;;;;;4.10;96.60;;;;;;4983084;28;19906;-67
2021/12/19 10:09:18;;;;;;;;;;;4.10;96.90;;;;;;4981744;28;19945;-68
2021/12/19 10:12:10;;;;;;;;;;;4.10;96.80;;;;;;4983205;28;19906;-68
2021/12/19 10:14:36;;;;;;;;;;;4.10;96.90;;;;;;4982184;28;19931;-68
2021/12/19 10:17:04;;;;;;;;;;;4.10;96.80;;;;;;4983307;28;19957;-68
2021/12/19 10:19:47;;;;;;;;;;;4.20;96.80;;;;;;4983223;28;19914;-68
2021/12/19 10:22:38;;;;;;;;;;;4.20;96.80;;;;;;4983038;28;20061;-69
2021/12/19 10:25:22;;;;;;;;;;;4.20;96.70;;;;;;4982460;28;19906;-68
2021/12/19 10:28:08;;;;;;;;;;;4.30;96.60;;;;;;4982670;28;19932;-68
2021/12/19 10:30:46;;;;;;;;;;;4.20;96.60;;;;;;4983001;28;20089;-68
2021/12/19 10:33:16;;;;;;;;;;;4.30;96.30;;;;;;4982836;28;19913;-68
2021/12/19 10:35:50;;;;;;;;;;;4.20;96.20;;;;;;4982771;28;19976;-68
2021/12/19 10:38:27;;;;;;;;;;;4.20;96.50;;;;;;4982795;28;19961;-67
2021/12/19 10:41:00;;;;;;;;;;;4.20;96.40;;;;;;4982899;28;20126;-66
2021/12/19 10:43:31;;;;;;;;;;;4.20;96.30;;;;;;4982919;28;19906;-66
2021/12/19 10:46:02;;;;;;;;;;;4.20;96.20;;;;;;4981343;28;19977;-67
2021/12/19 10:48:43;;;;;;;;;;;4.20;96.30;;;;;;4981348;28;19969;-67
2021/12/19 10:51:14;;;;;;;;;;;4.20;96.10;;;;;;4982254;28;19934;-66
2021/12/19 10:53:49;;;;;;;;;;;4.20;96.30;;;;;;4982355;28;19910;-66
2021/12/19 10:56:16;;;;;;;;;;;4.20;96.40;;;;;;4982013;28;19914;-68
2021/12/19 10:58:55;;;;;;;;;;;4.30;96.20;;;;;;4981214;28;19910;-68
2021/12/19 11:01:37;;;;;;;;;;;4.30;96.30;;;;;;4979899;28;20197;-67
2021/12/19 11:04:07;;;;;;;;;;;4.20;96.40;;;;;;4982140;28;19925;-67
2021/12/19 11:06:52;;;;;;;;;;;4.20;96.50;;;;;;4982072;28;19945;-66
2021/12/19 11:09:22;;;;;;;;;;;4.10;96.60;;;;;;4976067;28;19932;-67
2021/12/19 11:11:53;;;;;;;;;;;4.30;96.40;;;;;;4984864;28;19929;-67
2021/12/19 11:14:23;;;;;;;;;;;4.20;96.40;;;;;;4975079;28;19910;-67
2021/12/19 11:16:50;;;;;;;;;;;4.30;96.30;;;;;;4985158;28;19914;-66
2021/12/19 11:19:16;;;;;;;;;;;4.30;96.30;;;;;;4984952;28;19911;-67
2021/12/19 11:21:42;;;;;;;;;;;4.30;96.50;;;;;;4980626;28;19910;-66
2021/12/19 11:24:10;;;;;;;;;;;4.30;96.60;;;;;;4980990;28;19918;-66
2021/12/19 11:26:37;;;;;;;;;;;4.20;96.60;;;;;;4985226;28;19917;-66
2021/12/19 11:29:04;;;;;;;;;;;4.30;96.40;;;;;;4984814;28;19953;-66
2021/12/19 11:31:31;;;;;;;;;;;4.20;96.60;;;;;;4982603;28;19910;-66
2021/12/19 11:34:24;;;;;;;;;;;4.30;96.50;;;;;;4984917;28;19930;-66
2021/12/19 11:37:00;;;;;;;;;;;4.30;96.40;;;;;;4986426;28;19921;-66
2021/12/19 11:39:31;;;;;;;;;;;4.30;96.20;;;;;;4983679;28;19914;-67
2021/12/19 11:42:01;;;;;;;;;;;4.30;96.30;;;;;;5006767;23;20145;-75
2021/12/19 11:47:35;;;;;;;;;;;4.40;96.20;;;;;;5022160;28;19952;-75
2021/12/19 11:50:25;;;;;;;;;;;4.50;96.20;;;;;;4987350;28;19906;-76
2021/12/19 11:52:57;;;;;;;;;;;4.40;95.90;;;;;;4982028;28;19913;-75
2021/12/19 11:55:27;;;;;;;;;;;4.40;95.90;;;;;;4990561;28;20227;-75
2021/12/19 11:58:08;;;;;;;;;;;4.40;96.00;;;;;;4973946;28;19938;-76
2021/12/19 12:00:35;;;;;;;;;;;4.30;96.30;;;;;;4998847;28;19909;-76
2021/12/19 12:03:21;;;;;;;;;;;4.30;96.20;;;;;;4988165;28;20209;-75
2021/12/19 12:06:16;;;;;;;;;;;4.20;96.40;;;;;;4969565;28;19960;-73
2021/12/19 12:09:10;;;;;;;;;;;4.30;96.60;;;;;;4991090;28;19909;-73
2021/12/19 12:11:41;;;;;;;;;;;4.30;96.50;;;;;;5002098;28;19906;-75
2021/12/19 12:14:39;;;;;;;;;;;4.30;96.60;;;;;;4992645;28;19917;-74
2021/12/19 12:17:10;;;;;;;;;;;4.40;96.40;;;;;;4987875;28;19910;-73
2021/12/19 12:19:52;;;;;;;;;;;4.40;96.10;;;;;;4985375;28;19906;-71
2021/12/19 12:22:47;;;;;;;;;;;4.40;95.90;;;;;;5000028;28;19913;-71
2021/12/19 12:25:16;;;;;;;;;;;4.40;96.10;;;;;;4970933;28;19913;-71
2021/12/19 12:27:50;;;;;;;;;;;4.50;96.00;;;;;;4966116;29;19970;-72
2021/12/19 12:30:25;;;;;;;;;;;4.50;96.00;;;;;;4964750;29;19906;-70
2021/12/19 12:32:51;;;;;;;;;;;4.50;95.90;;;;;;4981204;28;19944;-72
2021/12/19 12:35:17;;;;;;;;;;;4.50;95.80;;;;;;5003346;28;19909;-73
2021/12/19 12:37:43;;;;;;;;;;;4.50;95.60;;;;;;4975409;28;19937;-72
2021/12/19 12:40:31;;;;;;;;;;;4.60;95.30;;;;;;4981709;28;19914;-73
2021/12/19 12:43:09;;;;;;;;;;;4.50;95.30;;;;;;4983810;28;19973;-70
2021/12/19 12:45:56;;;;;;;;;;;4.60;95.20;;;;;;4987278;28;20188;-71
2021/12/19 12:48:42;;;;;;;;;;;4.60;95.10;;;;;;4996899;28;19909;-72
2021/12/19 12:51:16;;;;;;;;;;;4.50;95.20;;;;;;4985768;28;19906;-69
2021/12/19 12:53:46;;;;;;;;;;;4.50;95.40;;;;;;4999706;28;19945;-68
2021/12/19 12:56:14;;;;;;;;;;;4.50;95.40;;;;;;4987297;28;19917;-69
2021/12/19 12:58:45;;;;;;;;;;;4.50;95.40;;;;;;4989233;28;19910;-70
2021/12/19 13:01:37;;;;;;;;;;;4.40;95.40;;;;;;4987187;28;19906;-69
2021/12/19 13:04:21;;;;;;;;;;;4.50;95.60;;;;;;4989763;28;19906;-70
2021/12/19 13:06:52;;;;;;;;;;;4.50;95.40;;;;;;4984303;28;19943;-67
2021/12/19 13:09:39;;;;;;;;;;;4.50;95.40;;;;;;4976010;28;19981;-67
2021/12/19 13:12:22;;;;;;;;;;;4.50;95.60;;;;;;4976121;28;20062;-69
2021/12/19 13:14:52;;;;;;;;;;;4.50;95.80;;;;;;4979964;28;19918;-69
2021/12/19 13:17:22;;;;;;;;;;;4.50;95.60;;;;;;4968923;28;19969;-68
2021/12/19 13:20:08;;;;;;;;;;;4.50;95.50;;;;;;4970154;28;19937;-68
2021/12/19 13:22:49;;;;;;;;;;;4.50;95.70;;;;;;4998653;28;20108;-69
2021/12/19 13:25:25;;;;;;;;;;;4.50;96.10;;;;;;5003353;28;19913;-66
2021/12/19 13:28:20;;;;;;;;;;;4.50;95.80;;;;;;4990647;28;20041;-71
2021/12/19 13:30:54;;;;;;;;;;;4.50;95.80;;;;;;4969600;28;19971;-69
2021/12/19 13:33:21;;;;;;;;;;;4.50;95.70;;;;;;4971117;28;19906;-66
2021/12/19 13:35:52;;;;;;;;;;;4.60;95.70;;;;;;4982922;28;19961;-68
2021/12/19 13:38:24;;;;;;;;;;;4.60;95.70;;;;;;4974075;28;20112;-69
2021/12/19 13:41:06;;;;;;;;;;;4.60;95.80;;;;;;4972578;28;19918;-69
2021/12/19 13:43:37;;;;;;;;;;;4.70;95.80;;;;;;4963922;28;19915;-65
2021/12/19 13:46:09;;;;;;;;;;;4.60;95.10;;;;;;4963797;29;20170;-69
2021/12/19 13:48:42;;;;;;;;;;;4.70;95.30;;;;;;4964020;28;19906;-68
2021/12/19 13:51:15;;;;;;;;;;;4.70;95.30;;;;;;4962092;29;19997;-66
2021/12/19 13:53:47;;;;;;;;;;;4.70;95.70;;;;;;4962797;29;19907;-72
2021/12/19 13:56:17;;;;;;;;;;;4.70;95.60;;;;;;4963335;28;19910;-72
2021/12/19 13:58:53;;;;;;;;;;;4.70;95.40;;;;;;4946977;29;19981;-73
2021/12/19 14:01:45;;;;;;;;;;;4.70;95.10;;;;;;4963777;28;19913;-75
2021/12/19 14:04:24;;;;;;;;;;;4.70;95.10;;;;;;4965311;28;20124;-73
2021/12/19 14:06:59;;;;;;;;;;;4.70;95.40;;;;;;4980234;28;20201;-72
2021/12/19 14:09:25;;;;;;;;;;;4.70;95.50;;;;;;4967940;28;19906;-72
2021/12/19 14:11:57;;;;;;;;;;;4.70;95.30;;;;;;4971524;28;19913;-71
2021/12/19 14:14:31;;;;;;;;;;;4.70;95.20;;;;;;4971652;28;20082;-74
2021/12/19 14:16:59;;;;;;;;;;;4.70;95.10;;;;;;4996938;28;19918;-72
2021/12/19 14:19:27;;;;;;;;;;;4.60;95.10;;;;;;4981922;28;19945;-74
2021/12/19 14:22:01;;;;;;;;;;;4.70;95.20;;;;;;4982485;28;19988;-73
2021/12/19 14:24:45;;;;;;;;;;;4.70;95.10;;;;;;4982409;28;19921;-73
2021/12/19 14:27:17;;;;;;;;;;;4.70;95.10;;;;;;4982876;28;19973;-74
2021/12/19 14:29:45;;;;;;;;;;;4.70;94.90;;;;;;4982828;28;19906;-73
2021/12/19 14:32:13;;;;;;;;;;;4.70;94.90;;;;;;4982275;28;20391;-71
2021/12/19 14:34:39;;;;;;;;;;;4.70;94.90;;;;;;4981490;28;20209;-70
2021/12/19 14:37:35;;;;;;;;;;;4.70;95.20;;;;;;4980591;28;19918;-75
2021/12/19 14:40:15;;;;;;;;;;;4.70;95.20;;;;;;4980294;28;19969;-73
2021/12/19 14:42:55;;;;;;;;;;;4.70;95.20;;;;;;4990879;28;20111;-73
2021/12/19 14:45:24;;;;;;;;;;;4.70;95.10;;;;;;4991918;28;20304;-73
2021/12/19 14:48:02;;;;;;;;;;;4.70;95.30;;;;;;5003409;28;19973;-73
2021/12/19 14:50:33;;;;;;;;;;;4.70;95.00;;;;;;4994250;28;20001;-72
2021/12/19 14:53:07;;;;;;;;;;;4.70;95.10;;;;;;5004290;28;19905;-73
2021/12/19 14:55:43;;;;;;;;;;;4.70;94.90;;;;;;4996677;28;19906;-70
2021/12/19 14:58:09;;;;;;;;;;;4.80;94.70;;;;;;4986377;28;20210;-72
2021/12/19 15:00:36;;;;;;;;;;;4.80;94.90;;;;;;4986093;28;19913;-70
2021/12/19 15:03:02;;;;;;;;;;;4.80;95.10;;;;;;4986218;28;20227;-69
2021/12/19 15:05:28;;;;;;;;;;;4.80;94.70;;;;;;4984471;28;19909;-73
2021/12/19 15:07:54;;;;;;;;;;;4.80;94.80;;;;;;4984076;28;20082;-73
2021/12/19 15:10:22;;;;;;;;;;;4.80;94.90;;;;;;4980340;28;19906;-72
2021/12/19 15:12:47;;;;;;;;;;;4.80;94.90;;;;;;4984097;28;19906;-72
2021/12/19 15:15:15;;;;;;;;;;;4.80;94.90;;;;;;4986101;28;19980;-72
2021/12/19 15:17:43;;;;;;;;;;;4.80;94.90;;;;;;4969094;28;20296;-73
2021/12/19 15:20:09;;;;;;;;;;;4.80;95.00;;;;;;4986108;28;19981;-72
2021/12/19 15:22:36;;;;;;;;;;;4.80;94.80;;;;;;4985071;28;19906;-74
2021/12/19 15:25:02;;;;;;;;;;;4.80;95.00;;;;;;4985539;28;19921;-74
2021/12/19 15:27:28;;;;;;;;;;;4.70;95.10;;;;;;4968735;28;20321;-73
2021/12/19 15:29:54;;;;;;;;;;;4.80;95.00;;;;;;4985813;28;19913;-73
2021/12/19 15:32:20;;;;;;;;;;;4.80;95.10;;;;;;4985643;28;19910;-72
2021/12/19 15:34:45;;;;;;;;;;;4.80;95.10;;;;;;4985241;28;19913;-73
2021/12/19 15:37:11;;;;;;;;;;;4.70;95.10;;;;;;4984744;28;19984;-72
2021/12/19 15:39:37;;;;;;;;;;;4.80;95.10;;;;;;4984521;28;20196;-73
2021/12/19 15:42:03;;;;;;;;;;;4.80;95.10;;;;;;4978528;28;19974;-72
2021/12/19 15:44:28;;;;;;;;;;;4.80;94.90;;;;;;4981102;28;19906;-72
2021/12/19 15:46:54;;;;;;;;;;;4.80;94.90;;;;;;4965482;28;19913;-71
2021/12/19 15:49:20;;;;;;;;;;;4.80;95.00;;;;;;4984796;28;20200;-68